Caribou, Maine
Current Conditions -  °F | °C
As of 9:54 PM on Monday 22 Dec 2014 (Local Time) from KCAR Reporting Station
Overcast Overcast  
Wind Chill: 21°   Ceiling: 3900
Heat Index: 26°   Visibility: 10mi
Dew Point: 23°   Wind: 5mph
Humidity: 88%   Direction: 130°SE
Pressure: 30.37"   Gusts: NA
Location:  46.86°N, 68.01°W
Report Text: KCAR 230254Z AUTO 13004KT 10SM OVC039 M03/M05 A3037 RMK AO2 SLP298 T10331050 58005
Loading
Personal Weather Stations






























Interactive Weather Map New forecast layout! Learn more

10-Day Weather Forecast

Advertisements
Track Severe Weather on mobile